createdAt,value
2023-05-03T00:02:25.474Z,11.91
2023-05-03T00:04:54.528Z,11.86
2023-05-03T00:07:23.066Z,11.82
2023-05-03T00:09:50.331Z,11.78
2023-05-03T00:12:17.371Z,11.72
2023-05-03T00:14:45.781Z,11.67
2023-05-03T00:17:13.137Z,11.63
2023-05-03T00:19:40.185Z,11.57
2023-05-03T00:22:07.714Z,11.53
2023-05-03T00:24:35.207Z,11.50
2023-05-03T00:27:03.696Z,11.48
2023-05-03T00:29:30.753Z,11.46
2023-05-03T00:31:57.749Z,11.45
2023-05-03T00:34:24.736Z,11.44
2023-05-03T00:36:52.074Z,11.42
2023-05-03T00:39:19.123Z,11.41
2023-05-03T00:41:46.183Z,11.41
2023-05-03T00:44:13.248Z,11.39
2023-05-03T00:46:40.527Z,11.36
2023-05-03T00:49:07.520Z,11.35
2023-05-03T00:51:34.536Z,11.32
2023-05-03T00:54:01.549Z,11.28
2023-05-03T00:56:30.990Z,11.25
2023-05-03T00:58:58.283Z,11.20
2023-05-03T01:01:25.917Z,11.15
2023-05-03T01:03:53.086Z,11.14
2023-05-03T01:06:38.843Z,11.13
2023-05-03T01:09:15.189Z,11.10
2023-05-03T01:11:44.677Z,11.07
2023-05-03T01:14:27.009Z,11.04
2023-05-03T01:16:56.557Z,11.02
2023-05-03T01:19:33.807Z,11.00
2023-05-03T01:22:36.608Z,10.98
2023-05-03T01:25:11.464Z,10.95
2023-05-03T01:27:39.205Z,10.96
2023-05-03T01:30:07.888Z,10.97
2023-05-03T01:32:44.441Z,10.98
2023-05-03T01:35:20.420Z,10.99
2023-05-03T01:37:48.362Z,11.00
2023-05-03T01:40:17.042Z,10.99
2023-05-03T01:42:44.036Z,10.96
2023-05-03T01:45:11.493Z,10.94
2023-05-03T01:47:38.488Z,10.93
2023-05-03T01:50:05.804Z,10.93
2023-05-03T01:52:33.549Z,10.92
2023-05-03T01:55:00.575Z,10.92
2023-05-03T01:57:27.615Z,10.93
2023-05-03T01:59:54.617Z,10.93
2023-05-03T02:02:22.537Z,10.91
2023-05-03T02:04:50.058Z,10.89
2023-05-03T02:07:17.041Z,10.87
2023-05-03T02:09:45.913Z,10.84
2023-05-03T02:12:12.957Z,10.81
2023-05-03T02:14:41.275Z,10.78
2023-05-03T02:17:10.581Z,10.75
2023-05-03T02:19:37.975Z,10.74
2023-05-03T02:22:04.901Z,10.74
2023-05-03T02:24:36.328Z,10.76
2023-05-03T02:27:07.264Z,10.75
2023-05-03T02:29:34.282Z,10.74
2023-05-03T02:32:01.930Z,10.73
2023-05-03T02:34:28.937Z,10.74
2023-05-03T02:36:55.979Z,10.74
2023-05-03T02:39:23.158Z,10.74
2023-05-03T02:41:50.304Z,10.75
2023-05-03T02:44:17.307Z,10.76
2023-05-03T02:46:44.569Z,10.75
2023-05-03T02:49:11.882Z,10.75
2023-05-03T02:51:38.879Z,10.74
2023-05-03T02:54:06.021Z,10.70
2023-05-03T02:56:33.846Z,10.69
2023-05-03T02:59:00.804Z,10.69
2023-05-03T03:01:28.996Z,10.71
2023-05-03T03:03:56.750Z,10.73
2023-05-03T03:06:23.773Z,10.75
2023-05-03T03:08:50.790Z,10.76
2023-05-03T03:11:18.325Z,10.78
2023-05-03T03:13:45.301Z,10.79
2023-05-03T03:16:13.665Z,10.82
2023-05-03T03:18:40.926Z,10.84
2023-05-03T03:21:08.309Z,10.88
2023-05-03T03:23:35.468Z,10.91
2023-05-03T03:26:03.538Z,10.94
2023-05-03T03:28:30.591Z,10.95
2023-05-03T03:30:58.217Z,10.99
2023-05-03T03:33:26.020Z,11.03
2023-05-03T03:35:54.969Z,11.06
2023-05-03T03:38:22.135Z,11.10
2023-05-03T03:40:54.313Z,11.14
2023-05-03T03:43:21.502Z,11.19
2023-05-03T03:45:48.922Z,11.23
2023-05-03T03:48:16.246Z,11.28
2023-05-03T03:50:43.226Z,11.36
2023-05-03T03:53:11.801Z,11.44
2023-05-03T03:55:39.056Z,11.57
2023-05-03T03:58:07.250Z,11.73
2023-05-03T04:00:34.973Z,11.86
2023-05-03T04:03:07.538Z,11.97
2023-05-03T04:05:35.873Z,12.07
2023-05-03T04:08:03.256Z,12.19
2023-05-03T04:10:31.766Z,12.30
2023-05-03T04:12:59.124Z,12.41
2023-05-03T04:15:26.326Z,12.57
2023-05-03T04:17:54.104Z,12.83
2023-05-03T04:20:21.719Z,13.16
2023-05-03T04:22:50.002Z,13.52
2023-05-03T04:25:18.433Z,13.94
2023-05-03T04:27:51.659Z,14.34
2023-05-03T04:30:20.883Z,14.70
2023-05-03T04:32:54.406Z,15.06
2023-05-03T04:35:22.859Z,15.38
2023-05-03T04:37:49.806Z,15.56
2023-05-03T04:40:19.947Z,15.66
2023-05-03T04:42:51.815Z,15.79
2023-05-03T04:45:19.033Z,15.97
2023-05-03T04:47:46.760Z,16.18
2023-05-03T04:50:13.820Z,16.38
2023-05-03T04:52:42.519Z,16.57
2023-05-03T04:55:09.956Z,16.79
2023-05-03T04:57:37.064Z,17.04
2023-05-03T05:00:11.651Z,17.30
2023-05-03T05:02:41.376Z,17.58
2023-05-03T05:05:09.688Z,17.81
2023-05-03T05:07:37.059Z,18.03
2023-05-03T05:10:04.916Z,18.21
2023-05-03T05:12:32.355Z,18.34
2023-05-03T05:15:00.179Z,18.42
2023-05-03T05:17:27.585Z,18.54
2023-05-03T05:19:54.725Z,18.64
2023-05-03T05:22:21.876Z,18.74
2023-05-03T05:24:53.419Z,18.77
2023-05-03T05:27:20.594Z,18.79
2023-05-03T05:29:48.150Z,18.83
2023-05-03T05:32:15.218Z,18.79
2023-05-03T05:34:44.635Z,18.72
2023-05-03T05:37:13.607Z,18.77
2023-05-03T05:39:41.436Z,18.86
2023-05-03T05:42:08.753Z,18.96
2023-05-03T05:44:35.867Z,19.05
2023-05-03T05:47:03.541Z,19.11
2023-05-03T05:49:30.654Z,19.17
2023-05-03T05:51:58.009Z,19.27
2023-05-03T05:54:24.985Z,19.38
2023-05-03T05:56:52.273Z,19.44
2023-05-03T05:59:19.645Z,19.50
2023-05-03T06:01:46.807Z,19.62
2023-05-03T06:04:16.858Z,19.72
2023-05-03T06:06:45.355Z,19.79
2023-05-03T06:09:24.051Z,19.86
2023-05-03T06:11:55.489Z,19.93
2023-05-03T06:14:23.554Z,20.03
2023-05-03T06:16:51.875Z,20.09
2023-05-03T06:19:18.939Z,20.11
2023-05-03T06:21:46.245Z,20.12
2023-05-03T06:24:14.995Z,20.17
2023-05-03T06:26:42.034Z,20.20
2023-05-03T06:29:10.951Z,20.25
2023-05-03T06:31:38.038Z,20.31
2023-05-03T06:34:05.030Z,20.34
2023-05-03T06:36:33.028Z,20.34
2023-05-03T06:39:00.402Z,20.35
2023-05-03T06:41:27.397Z,20.36
2023-05-03T06:43:54.441Z,20.35
2023-05-03T06:46:21.988Z,20.33
2023-05-03T06:48:49.134Z,20.34
2023-05-03T06:51:16.200Z,20.32
2023-05-03T06:53:43.250Z,20.29
2023-05-03T06:56:10.224Z,20.26
2023-05-03T06:58:37.393Z,20.24
2023-05-03T07:01:04.415Z,20.22
2023-05-03T07:03:31.486Z,20.26
2023-05-03T07:05:59.160Z,20.31
2023-05-03T07:08:26.492Z,20.39
2023-05-03T07:10:53.490Z,20.42
2023-05-03T07:13:20.980Z,20.45
2023-05-03T07:15:48.072Z,20.51
2023-05-03T07:18:15.154Z,20.67
2023-05-03T07:20:42.238Z,20.82
2023-05-03T07:23:09.475Z,20.94
2023-05-03T07:25:36.494Z,21.05
2023-05-03T07:28:03.963Z,21.09
2023-05-03T07:30:31.004Z,21.09
2023-05-03T07:32:58.069Z,21.08
2023-05-03T07:35:26.920Z,21.06
2023-05-03T07:37:53.917Z,21.02
2023-05-03T07:40:20.971Z,21.00
2023-05-03T07:42:48.083Z,21.00
2023-05-03T07:45:15.064Z,20.99
2023-05-03T07:47:42.166Z,21.00
2023-05-03T07:50:09.559Z,21.01
2023-05-03T07:52:37.549Z,20.97
2023-05-03T07:55:05.489Z,20.94
2023-05-03T07:57:32.907Z,20.95
2023-05-03T07:59:59.940Z,21.01
2023-05-03T08:02:27.382Z,21.04
2023-05-03T08:04:55.452Z,21.03
2023-05-03T08:07:23.524Z,21.00
2023-05-03T08:09:53.753Z,20.94
2023-05-03T08:12:20.819Z,20.92
2023-05-03T08:14:47.831Z,20.91
2023-05-03T08:17:14.856Z,20.89
2023-05-03T08:19:42.699Z,20.92
2023-05-03T08:22:12.702Z,20.99
2023-05-03T08:24:39.736Z,21.10
2023-05-03T08:27:06.674Z,21.23
2023-05-03T08:29:37.149Z,21.35
2023-05-03T08:32:04.759Z,21.46
2023-05-03T08:34:32.138Z,21.58
2023-05-03T08:36:59.741Z,21.67
2023-05-03T08:39:27.050Z,21.77
2023-05-03T08:41:56.038Z,21.83
2023-05-03T08:44:23.543Z,21.88
2023-05-03T08:46:50.828Z,21.91
2023-05-03T08:49:18.165Z,21.94
2023-05-03T08:51:49.866Z,21.99
2023-05-03T08:54:18.340Z,22.10
2023-05-03T08:56:47.372Z,22.21
2023-05-03T08:59:16.559Z,22.32
2023-05-03T09:01:43.899Z,22.43
2023-05-03T09:04:11.681Z,22.50
2023-05-03T09:06:38.934Z,22.57
2023-05-03T09:09:09.970Z,22.61
2023-05-03T09:11:38.302Z,22.61
2023-05-03T09:14:09.581Z,22.64
2023-05-03T09:16:36.711Z,22.68
2023-05-03T09:19:05.130Z,22.73
2023-05-03T09:21:33.754Z,22.74
2023-05-03T09:24:01.817Z,22.80
2023-05-03T09:26:30.024Z,22.85
2023-05-03T09:28:58.881Z,22.91
2023-05-03T09:31:26.253Z,22.95
2023-05-03T09:33:53.698Z,22.95
2023-05-03T09:36:20.735Z,22.94
2023-05-03T09:38:47.795Z,22.99
2023-05-03T09:41:15.319Z,23.06
2023-05-03T09:43:52.653Z,23.13
2023-05-03T09:46:20.754Z,23.22
2023-05-03T09:48:49.592Z,23.27
2023-05-03T09:51:16.673Z,23.27
2023-05-03T09:53:43.608Z,23.28
2023-05-03T09:56:13.468Z,23.27
2023-05-03T09:58:41.078Z,23.31
2023-05-03T10:01:09.494Z,23.37
2023-05-03T10:03:41.842Z,23.43
2023-05-03T10:06:24.460Z,23.53
2023-05-03T10:09:12.389Z,23.64
2023-05-03T10:11:39.496Z,23.84
2023-05-03T10:14:09.768Z,24.09
2023-05-03T10:16:38.815Z,24.38
2023-05-03T10:19:14.395Z,24.66
2023-05-03T10:22:06.852Z,24.92
2023-05-03T10:24:34.939Z,25.21
2023-05-03T10:27:02.165Z,25.49
2023-05-03T10:29:46.136Z,25.73
2023-05-03T10:32:44.607Z,25.92
2023-05-03T10:35:15.690Z,26.07
2023-05-03T10:37:43.036Z,26.26
2023-05-03T10:40:15.361Z,26.28
2023-05-03T10:42:46.885Z,26.20
2023-05-03T10:45:29.404Z,26.10
2023-05-03T10:48:11.727Z,26.02
2023-05-03T10:50:39.903Z,26.05
2023-05-03T10:53:06.926Z,26.02
2023-05-03T10:55:34.189Z,25.97
2023-05-03T10:58:01.379Z,25.88
2023-05-03T11:00:41.490Z,25.82
2023-05-03T11:03:35.803Z,25.83
2023-05-03T11:06:04.220Z,25.89
2023-05-03T11:08:37.558Z,26.01
2023-05-03T11:11:09.974Z,26.11
2023-05-03T11:13:37.500Z,26.19
2023-05-03T11:16:07.957Z,26.33
2023-05-03T11:18:35.040Z,26.48
2023-05-03T11:21:02.210Z,26.69
2023-05-03T11:23:29.865Z,26.94
2023-05-03T11:25:58.240Z,27.19
2023-05-03T11:28:28.704Z,27.37
2023-05-03T11:30:56.029Z,27.45
2023-05-03T11:33:23.015Z,27.48
2023-05-03T11:35:50.519Z,27.61
2023-05-03T11:38:17.592Z,27.81
2023-05-03T11:40:44.644Z,27.90
2023-05-03T11:43:11.715Z,27.92
2023-05-03T11:45:44.285Z,27.96
2023-05-03T11:48:14.828Z,27.91
2023-05-03T11:50:56.000Z,27.83
2023-05-03T11:53:23.975Z,27.88
2023-05-03T11:55:53.457Z,27.93
2023-05-03T11:58:23.564Z,27.85
2023-05-03T12:00:51.493Z,27.84
2023-05-03T12:03:19.713Z,27.96
2023-05-03T12:05:48.764Z,28.12
2023-05-03T12:08:20.914Z,28.30
2023-05-03T12:10:49.970Z,28.60
2023-05-03T12:13:38.743Z,28.89
2023-05-03T12:18:47.379Z,29.15
2023-05-03T12:23:46.631Z,29.11
2023-05-03T12:26:15.267Z,29.26
2023-05-03T12:28:42.512Z,29.40
2023-05-03T12:33:38.969Z,29.89
2023-05-03T12:36:09.786Z,30.12
2023-05-03T12:38:37.954Z,30.38
2023-05-03T12:41:08.794Z,30.61
2023-05-03T12:43:36.601Z,30.76
2023-05-03T12:48:34.029Z,30.78
2023-05-03T12:51:18.398Z,30.84
2023-05-03T12:53:54.795Z,30.96
2023-05-03T12:56:24.705Z,30.86
2023-05-03T12:59:15.120Z,30.55
2023-05-03T13:06:43.824Z,29.78
2023-05-03T13:09:19.308Z,29.57
2023-05-03T13:11:50.350Z,29.30
2023-05-03T13:14:18.295Z,29.05
2023-05-03T13:16:46.830Z,28.79
2023-05-03T13:19:13.910Z,28.63
2023-05-03T13:21:40.968Z,28.52
2023-05-03T13:24:08.067Z,28.49
2023-05-03T13:26:35.535Z,28.45
2023-05-03T13:29:03.377Z,28.27
2023-05-03T13:31:30.628Z,28.03
2023-05-03T13:33:57.689Z,27.85
2023-05-03T13:36:25.060Z,27.77
2023-05-03T13:38:52.243Z,27.66
2023-05-03T13:41:22.735Z,27.54
2023-05-03T13:43:49.887Z,27.56
2023-05-03T13:46:17.174Z,27.62
2023-05-03T13:48:44.272Z,27.58
2023-05-03T13:51:13.035Z,27.45
2023-05-03T13:53:40.165Z,27.34
2023-05-03T13:56:07.822Z,27.30
2023-05-03T13:58:36.369Z,27.24
2023-05-03T14:01:03.735Z,27.14
2023-05-03T14:03:32.018Z,27.02
2023-05-03T14:05:59.125Z,26.84
2023-05-03T14:08:26.240Z,26.70
2023-05-03T14:10:53.530Z,26.58
2023-05-03T14:13:20.583Z,26.44
2023-05-03T14:15:47.641Z,26.30
2023-05-03T14:18:14.829Z,26.18
2023-05-03T14:20:42.529Z,26.15
2023-05-03T14:23:09.821Z,26.19
2023-05-03T14:25:36.854Z,26.20
2023-05-03T14:28:05.429Z,26.16
2023-05-03T14:30:32.998Z,26.10
2023-05-03T14:33:00.480Z,26.05
2023-05-03T14:35:27.546Z,26.00
2023-05-03T14:37:55.640Z,25.90
2023-05-03T14:40:22.704Z,25.75
2023-05-03T14:42:50.166Z,25.58
2023-05-03T14:45:17.233Z,25.44
2023-05-03T14:47:44.246Z,25.34
2023-05-03T14:50:11.311Z,25.27
2023-05-03T14:52:38.396Z,25.19
2023-05-03T14:55:06.949Z,25.10
2023-05-03T14:57:34.247Z,25.00
2023-05-03T15:00:07.556Z,24.96
2023-05-03T15:02:35.056Z,24.92
2023-05-03T15:05:04.591Z,24.86
2023-05-03T15:07:31.907Z,24.76
2023-05-03T15:09:59.077Z,24.69
2023-05-03T15:12:26.928Z,24.63
2023-05-03T15:14:53.868Z,24.63
2023-05-03T15:17:21.092Z,24.64
2023-05-03T15:19:48.319Z,24.64
2023-05-03T15:22:15.303Z,24.58
2023-05-03T15:24:42.378Z,24.54
2023-05-03T15:27:09.383Z,24.52
2023-05-03T15:29:36.401Z,24.51
2023-05-03T15:32:03.741Z,24.47
2023-05-03T15:34:31.056Z,24.44
2023-05-03T15:36:58.126Z,24.40
2023-05-03T15:39:25.259Z,24.36
2023-05-03T15:41:52.358Z,24.32
2023-05-03T15:44:19.319Z,24.29
2023-05-03T15:46:46.469Z,24.26
2023-05-03T15:49:13.516Z,24.24
2023-05-03T15:51:40.583Z,24.22
2023-05-03T15:54:07.606Z,24.20
2023-05-03T15:56:34.529Z,24.18
2023-05-03T15:59:01.596Z,24.15
2023-05-03T16:01:29.223Z,24.11
2023-05-03T16:03:56.702Z,24.07
2023-05-03T16:06:23.636Z,24.02
2023-05-03T16:08:51.214Z,23.97
2023-05-03T16:11:18.241Z,23.93
2023-05-03T16:13:45.276Z,23.88
2023-05-03T16:16:12.440Z,23.82
2023-05-03T16:18:39.525Z,23.77
2023-05-03T16:21:06.611Z,23.72
2023-05-03T16:23:33.638Z,23.67
2023-05-03T16:26:01.209Z,23.57
2023-05-03T16:28:28.274Z,23.47
2023-05-03T16:30:55.276Z,23.39
2023-05-03T16:33:22.515Z,23.31
2023-05-03T16:35:50.118Z,23.20
2023-05-03T16:38:17.478Z,23.09
2023-05-03T16:40:46.187Z,22.99
2023-05-03T16:43:15.775Z,22.92
2023-05-03T16:45:43.060Z,22.87
2023-05-03T16:48:11.075Z,22.84
2023-05-03T16:50:40.615Z,22.81
2023-05-03T16:53:11.886Z,22.77
2023-05-03T16:55:38.898Z,22.71
2023-05-03T16:58:07.272Z,22.64
2023-05-03T17:00:34.415Z,22.52
2023-05-03T17:03:01.420Z,22.37
2023-05-03T17:05:33.247Z,22.22
2023-05-03T17:08:01.525Z,22.07
2023-05-03T17:10:29.095Z,21.92
2023-05-03T17:12:56.692Z,21.78
2023-05-03T17:15:23.698Z,21.68
2023-05-03T17:17:52.109Z,21.59
2023-05-03T17:20:19.771Z,21.48
2023-05-03T17:22:47.347Z,21.34
2023-05-03T17:25:14.506Z,21.19
2023-05-03T17:27:43.804Z,21.07
2023-05-03T17:30:11.686Z,20.99
2023-05-03T17:32:42.069Z,20.91
2023-05-03T17:35:11.488Z,20.79
2023-05-03T17:37:38.626Z,20.69
2023-05-03T17:40:09.110Z,20.62
2023-05-03T17:42:36.141Z,20.54
2023-05-03T17:45:04.360Z,20.48
2023-05-03T17:47:32.474Z,20.42
2023-05-03T17:49:59.532Z,20.35
2023-05-03T17:52:26.528Z,20.26
2023-05-03T17:54:53.955Z,20.17
2023-05-03T17:57:21.175Z,20.08
2023-05-03T17:59:48.697Z,20.01
2023-05-03T18:02:15.971Z,19.93
2023-05-03T18:04:42.982Z,19.81
2023-05-03T18:07:10.214Z,19.71
2023-05-03T18:09:38.300Z,19.62
2023-05-03T18:12:05.802Z,19.54
2023-05-03T18:14:36.263Z,19.48
2023-05-03T18:17:03.283Z,19.44
2023-05-03T18:19:30.471Z,19.40
2023-05-03T18:21:57.812Z,19.36
2023-05-03T18:24:24.985Z,19.33
2023-05-03T18:26:54.400Z,19.30
2023-05-03T18:29:25.558Z,19.28
2023-05-03T18:31:55.665Z,19.26
2023-05-03T18:34:22.953Z,19.24
2023-05-03T18:36:50.090Z,19.20
2023-05-03T18:39:17.433Z,19.17
2023-05-03T18:41:44.463Z,19.17
2023-05-03T18:44:11.492Z,19.16
2023-05-03T18:46:38.573Z,19.16
2023-05-03T18:49:06.393Z,19.16
2023-05-03T18:51:33.619Z,19.14
2023-05-03T18:54:00.652Z,19.08
2023-05-03T18:56:30.418Z,18.99
2023-05-03T18:58:57.397Z,18.88
2023-05-03T19:01:26.675Z,18.82
2023-05-03T19:03:54.297Z,18.79
2023-05-03T19:06:21.501Z,18.78
2023-05-03T19:08:49.771Z,18.75
2023-05-03T19:11:17.275Z,18.70
2023-05-03T19:13:47.580Z,18.61
2023-05-03T19:16:17.408Z,18.54
2023-05-03T19:18:45.613Z,18.48
2023-05-03T19:21:12.731Z,18.42
2023-05-03T19:23:43.844Z,18.35
2023-05-03T19:26:10.865Z,18.31
2023-05-03T19:28:37.916Z,18.24
2023-05-03T19:31:05.979Z,18.18
2023-05-03T19:33:33.092Z,18.11
2023-05-03T19:36:06.732Z,18.06
2023-05-03T19:38:36.587Z,18.02
2023-05-03T19:41:12.064Z,17.97
2023-05-03T19:43:39.794Z,17.93
2023-05-03T19:46:07.397Z,17.88
2023-05-03T19:48:34.623Z,17.81
2023-05-03T19:51:02.639Z,17.76
2023-05-03T19:53:30.035Z,17.70
2023-05-03T19:56:03.118Z,17.63
2023-05-03T19:58:31.964Z,17.56
2023-05-03T20:00:59.408Z,17.48
2023-05-03T20:03:27.599Z,17.43
2023-05-03T20:05:54.891Z,17.37
2023-05-03T20:08:22.768Z,17.31
2023-05-03T20:10:50.361Z,17.24
2023-05-03T20:13:17.536Z,17.17
2023-05-03T20:15:44.552Z,17.12
2023-05-03T20:18:11.535Z,17.07
2023-05-03T20:20:38.569Z,17.01
2023-05-03T20:23:05.592Z,16.95
2023-05-03T20:25:32.560Z,16.89
2023-05-03T20:27:59.488Z,16.84
2023-05-03T20:30:28.844Z,16.82
2023-05-03T20:32:55.924Z,16.77
2023-05-03T20:35:23.066Z,16.71
2023-05-03T20:37:50.079Z,16.65
2023-05-03T20:40:17.099Z,16.62
2023-05-03T20:42:44.043Z,16.58
2023-05-03T20:45:11.229Z,16.53
2023-05-03T20:47:38.151Z,16.47
2023-05-03T20:50:06.221Z,16.42
2023-05-03T20:52:33.412Z,16.37
2023-05-03T20:55:00.444Z,16.32
2023-05-03T20:57:27.985Z,16.28
2023-05-03T20:59:54.972Z,16.24
2023-05-03T21:02:22.113Z,16.21
2023-05-03T21:04:49.126Z,16.17
2023-05-03T21:07:16.150Z,16.12
2023-05-03T21:09:43.105Z,16.09
2023-05-03T21:12:10.206Z,16.03
2023-05-03T21:14:37.144Z,15.98
2023-05-03T21:17:04.505Z,15.93
2023-05-03T21:19:31.563Z,15.89
2023-05-03T21:21:58.552Z,15.87
2023-05-03T21:24:25.947Z,15.84
2023-05-03T21:26:52.901Z,15.82
2023-05-03T21:29:19.903Z,15.80
2023-05-03T21:32:11.947Z,15.76
2023-05-03T21:34:39.290Z,15.71
2023-05-03T21:37:06.269Z,15.67
2023-05-03T21:39:34.120Z,15.65
2023-05-03T21:42:01.102Z,15.60
2023-05-03T21:44:28.088Z,15.55
2023-05-03T21:46:55.226Z,15.52
2023-05-03T21:49:22.568Z,15.47
2023-05-03T21:51:50.243Z,15.43
2023-05-03T21:54:19.168Z,15.39
2023-05-03T21:56:46.184Z,15.35
2023-05-03T21:59:13.285Z,15.31
2023-05-03T22:01:40.470Z,15.27
2023-05-03T22:04:07.813Z,15.23
2023-05-03T22:06:34.912Z,15.21
2023-05-03T22:09:02.015Z,15.19
2023-05-03T22:11:29.240Z,15.16
2023-05-03T22:14:06.619Z,15.12
2023-05-03T22:16:35.317Z,15.09
2023-05-03T22:19:02.363Z,15.05
2023-05-03T22:21:29.380Z,15.01
2023-05-03T22:23:56.320Z,14.97
2023-05-03T22:26:24.416Z,14.94
2023-05-03T22:28:52.136Z,14.90
2023-05-03T22:31:19.110Z,14.86
2023-05-03T22:33:47.368Z,14.81
2023-05-03T22:36:14.751Z,14.76
2023-05-03T22:38:43.097Z,14.73
2023-05-03T22:41:10.514Z,14.68
2023-05-03T22:43:37.807Z,14.63
2023-05-03T22:46:04.939Z,14.58
2023-05-03T22:48:34.698Z,14.52
2023-05-03T22:51:01.646Z,14.46
2023-05-03T22:53:28.655Z,14.41
2023-05-03T22:55:58.027Z,14.37
2023-05-03T22:58:25.818Z,14.33
2023-05-03T23:00:53.226Z,14.29
2023-05-03T23:03:20.824Z,14.26
2023-05-03T23:05:48.296Z,14.24
2023-05-03T23:08:15.537Z,14.22
2023-05-03T23:10:42.529Z,14.18
2023-05-03T23:13:09.724Z,14.12
2023-05-03T23:15:37.092Z,14.06
2023-05-03T23:18:04.276Z,14.00
2023-05-03T23:20:31.275Z,13.96
2023-05-03T23:22:58.202Z,13.90
2023-05-03T23:25:25.523Z,13.86
2023-05-03T23:27:52.626Z,13.82
2023-05-03T23:30:20.084Z,13.77
2023-05-03T23:32:47.680Z,13.74
2023-05-03T23:35:16.049Z,13.70
2023-05-03T23:37:43.018Z,13.66
2023-05-03T23:40:10.238Z,13.61
2023-05-03T23:42:39.749Z,13.57
2023-05-03T23:45:08.715Z,13.53
2023-05-03T23:47:36.117Z,13.48
2023-05-03T23:50:03.253Z,13.40
2023-05-03T23:52:30.461Z,13.34
2023-05-03T23:54:57.473Z,13.29
2023-05-03T23:57:24.475Z,13.27
2023-05-03T23:59:51.788Z,13.27
